Nearby METAR Reports

 

KSJC - San Jose, California, USA
Distance from station: NE 9mi, 14km
Updated: Fri, Jul-20-2018 10:53pm CDT
Few Clouds
Few Clouds
 Wind from WNW
Wind: WNW 10 mph , 17 km/h
Temperature: 73°F , 23°C
Dew Point: 59°F , 15°C
Humidity: 61%
Barometer: 29.90 inHg , 1012.5 hPa
Clouds: Few Clouds
Visibility: 10 miles , 16 km
Cloud details: Few Clouds 5500 ft
Few Clouds 9000 ft
2018/07/21 03:53 KSJC 210353Z 30009KT 10SM FEW055 FEW090 23/15 A2990 RMK AO2 SLP125 T02280150
KNUQ - Moffett Nas/Mtn, California, USA
Distance from station: N 9mi, 14km
Updated: Fri, Jul-20-2018 10:56pm CDT
Clear
Clear
 Wind from NNW
Wind: NNW 8 mph , 13 km/h
Temperature: 66°F , 19°C
Dew Point: 61°F , 16°C
Humidity: 83%
Barometer: 29.91 inHg , 1012.9 hPa
Clouds: Clear
Visibility: 10 miles , 16 km
2018/07/21 03:56 KNUQ 210356Z 33007KT 10SM CLR 19/16 A2991 RMK AO2 SLP132 T01890161
 
KPAO - Palo Alto, California, USA
Distance from station: NNW 14mi, 23km
Updated: Fri, Jul-20-2018 10:47pm CDT
Few Clouds
Few Clouds
 Wind from NW
Wind: NW 14 mph , 22 km/h
Temperature: 75°F , 24°C
Dew Point: 64°F , 18°C
Humidity: 69%
Barometer: 29.92 inHg , 1013.2 hPa
Clouds: Few Clouds
Visibility: 10 miles , 16 km
Cloud details: Few Clouds 12000 ft
2018/07/21 03:47 KPAO 210347Z 32012KT 10SM FEW120 24/18 A2992
KRHV - San Jose/Reid, California, USA
Distance from station: ENE 12mi, 19km
Updated: Fri, Jul-20-2018 10:47pm CDT
Clear
Clear
 Wind from NW
Wind: NW 12 mph , 19 km/h
Temperature: 77°F , 25°C
Dew Point: 61°F , 16°C
Humidity: 57%
Barometer: 29.88 inHg , 1011.9 hPa
Clouds: Clear
Visibility: 10 miles , 16 km
2018/07/21 03:47 KRHV 210347Z 32010KT 10SM SKC 25/16 A2988
 
KOAK - Oakland, California, USA
Distance from station: NNW 31mi, 50km
Updated: Fri, Jul-20-2018 10:53pm CDT
Few Clouds
Few Clouds
 Wind from NW
Wind: NW 8 mph , 13 km/h
Temperature: 63°F , 17°C
Dew Point: 57°F , 14°C
Humidity: 83%
Barometer: 29.92 inHg , 1013.2 hPa
Clouds: Few Clouds
Visibility: 10 miles , 16 km
Cloud details: Few Clouds 500 ft
Few Clouds 18000 ft
2018/07/21 03:53 KOAK 210353Z 32007KT 10SM FEW005 FEW180 17/14 A2992 RMK AO2 SLP131 T01720144
KSQL - San Carlos Airpo, California, USA
Distance from station: NW 21mi, 34km
Updated: Fri, Jul-20-2018 10:50pm CDT
Few Clouds
Few Clouds
 Wind from N
Wind: N 7 mph , 11 km/h
Temperature: 70°F , 21°C
Dew Point: 59°F , 15°C
Humidity: 69%
Barometer: 29.90 inHg , 1012.5 hPa
Clouds: Few Clouds
Visibility: 10 miles , 16 km
Cloud details: Few Clouds 20000 ft
2018/07/21 03:50 KSQL 210350Z 01006KT 10SM FEW200 21/15 A2990 RMK LAST
 
KSFO - San Francisco, California, USA
Distance from station: NW 30mi, 49km
Updated: Fri, Jul-20-2018 10:56pm CDT
Few Clouds
Few Clouds
 Wind from NW
Wind: NW 13 mph , 20 km/h
Temperature: 63°F , 17°C
Dew Point: 57°F , 14°C
Humidity: 83%
Barometer: 29.90 inHg , 1012.5 hPa
Clouds: Few Clouds
Visibility: 10 miles , 16 km
Cloud details: Few Clouds 300 ft
Few Clouds 18000 ft
2018/07/21 03:56 KSFO 210356Z 31011KT 10SM FEW003 FEW180 17/14 A2990 RMK AO2 SLP126 T01720139 $
KE16 - San Martin, California, USA
Distance from station: ESE 27mi, 43km
Updated: Wed, Jul-18-2018 3:15pm CDT
NOT Current
Clear
Clear
 Wind from S
Wind: S 7 mph , 11 km/h
Temperature: 82°F , 28°C
Dew Point: 54°F , 12°C
Humidity: 37%
Barometer: 29.98 inHg , 1015.2 hPa
Clouds: Clear
Visibility: 9 miles , 14 km
2018/07/18 20:15 KE16 182015Z AUTO 17006KT 9SM CLR 28/12 A2998 RMK AO2
 
KWVI - Watsonville, California, USA
Distance from station: SSE 27mi, 44km
Updated: Fri, Jul-20-2018 10:53pm CDT
Clear
Clear
 Wind from SW
Wind: SW 3 mph , 6 km/h
Temperature: 61°F , 16°C
Dew Point: 57°F , 14°C
Humidity: 88%
Barometer: 29.95 inHg , 1014.2 hPa
Clouds: Clear
Visibility: 10 miles , 16 km
2018/07/21 03:53 KWVI 210353Z AUTO 22003KT 10SM CLR 16/14 A2995 RMK AO2 SLPNO T01560144
KHAF - Half Moon Bay, California, USA
Distance from station: WNW 31mi, 50km
Updated: Fri, Jul-20-2018 11:00pm CDT
Mist, Overcast
Mist, Overcast
 Wind from SSE
Wind: SSE 8 mph , 13 km/h
Temperature: 59°F , 15°C
Dew Point: 57°F , 14°C
Humidity: 94%
Barometer: 29.95 inHg , 1014.2 hPa
Summary: Mist
Clouds: Overcast
Visibility: 5 miles , 8 km
Cloud details: Overcast 400 ft
2018/07/21 04:00 KHAF 210400Z AUTO 16007KT 5SM BR OVC004 15/14 A2995 RMK AO2
 
KHWD - Hayward, California, USA
Distance from station: N 28mi, 44km
Updated: Fri, Jul-20-2018 10:54pm CDT
Few Clouds
Few Clouds
 Wind from NNW
Wind: NNW 7 mph , 11 km/h
Temperature: 66°F , 19°C
Dew Point: 57°F , 14°C
Humidity: 73%
Barometer: 29.91 inHg , 1012.9 hPa
Clouds: Few Clouds
Visibility: 10 miles , 16 km
Cloud details: Few Clouds 20000 ft
2018/07/21 03:54 KHWD 210354Z 33006KT 10SM FEW200 19/14 A2991 RMK AO2 SLP138 T01940139
KLVK - Livermore, California, USA
Distance from station: NNE 31mi, 51km
Updated: Fri, Jul-20-2018 10:53pm CDT
Clear
Clear
 Wind from WNW
Wind: WNW 10 mph , 17 km/h
Temperature: 73°F , 23°C
Dew Point: 55°F , 13°C
Humidity: 53%
Barometer: 29.89 inHg , 1012.2 hPa
Clouds: Clear
Visibility: 10 miles , 16 km
2018/07/21 03:53 KLVK 210353Z 29009KT 10SM CLR 23/13 A2989 RMK AO2 SLP117 T02330133